Time;durP1;ratioP1;P1;durP2;ratioP2;P2;SDS_P1;SDS_P2;PMS_P1;PMS_P2;Temp;Humidity;BMP_temperature;BMP_pressure;BME280_temperature;BME280_humidity;BME280_pressure;Samples;Min_cycle;Max_cycle;Signal;HPM_P1;HPM_P2
2022/05/21 00:00:42;;;;;;;10.80;4.72;;;10.60;99.90;;;;;;5062851;28;20037;-85
2022/05/21 00:03:09;;;;;;;8.23;4.60;;;10.60;99.90;;;;;;5032174;28;20037;-85
2022/05/21 00:05:36;;;;;;;8.32;4.53;;;10.60;99.90;;;;;;5046421;28;20065;-85
2022/05/21 00:08:08;;;;;;;10.00;5.07;;;10.60;99.90;;;;;;5045481;28;20045;-85
2022/05/21 00:10:34;;;;;;;11.00;5.10;;;10.60;99.90;;;;;;5030976;28;20065;-87
2022/05/21 00:13:01;;;;;;;12.05;5.32;;;10.60;99.90;;;;;;5032309;28;20527;-86
2022/05/21 00:15:31;;;;;;;12.00;5.43;;;10.70;99.90;;;;;;5047060;28;20426;-86
2022/05/21 00:17:57;;;;;;;9.82;5.32;;;10.70;99.90;;;;;;5050071;28;20029;-86
2022/05/21 00:23:30;;;;;;;9.70;5.63;;;10.70;99.90;;;;;;5043304;28;20137;-86
2022/05/21 00:26:04;;;;;;;9.30;5.90;;;10.70;99.90;;;;;;5032220;28;20431;-86
2022/05/21 00:28:30;;;;;;;11.10;5.43;;;10.70;99.90;;;;;;5030818;28;20040;-86
2022/05/21 00:30:57;;;;;;;9.68;5.53;;;10.70;99.90;;;;;;5032366;28;20115;-86
2022/05/21 00:33:23;;;;;;;10.57;5.45;;;10.70;99.90;;;;;;5032389;28;20041;-85
2022/05/21 00:35:50;;;;;;;13.50;5.85;;;10.70;99.90;;;;;;5029571;28;20179;-86
2022/05/21 00:38:16;;;;;;;10.13;5.70;;;10.70;99.90;;;;;;5047903;28;20029;-87
2022/05/21 00:40:42;;;;;;;9.98;6.10;;;10.70;99.90;;;;;;5047941;28;20100;-86
2022/05/21 00:43:46;;;;;;;11.68;6.20;;;10.70;99.90;;;;;;5046537;28;20044;-86
2022/05/21 00:46:21;;;;;;;11.13;6.20;;;10.70;99.90;;;;;;5046008;28;20045;-86
2022/05/21 00:48:58;;;;;;;10.35;6.50;;;10.70;99.90;;;;;;5042922;28;20048;-86
2022/05/21 00:51:27;;;;;;;11.43;6.40;;;10.80;99.90;;;;;;5035141;28;20045;-86
2022/05/21 00:53:55;;;;;;;11.43;7.10;;;10.80;99.90;;;;;;5042697;28;20056;-86
2022/05/21 00:56:24;;;;;;;12.57;7.97;;;10.80;99.90;;;;;;5028417;28;20083;-85
2022/05/21 01:01:41;;;;;;;17.67;8.93;;;10.80;99.90;;;;;;5063243;28;20041;-86
2022/05/21 01:04:15;;;;;;;17.90;9.10;;;10.80;99.90;;;;;;5047183;28;20044;-87
2022/05/21 01:06:40;;;;;;;;;;;10.90;99.90;;;;;;5047608;28;20426;-87
2022/05/21 01:09:07;;;;;;;17.27;9.20;;;11.10;99.90;;;;;;5048618;28;19916;-87
2022/05/21 01:11:34;;;;;;;17.48;10.65;;;11.20;99.90;;;;;;5048400;28;20044;-86
2022/05/21 01:14:02;;;;;;;18.13;10.98;;;10.80;99.90;;;;;;5031353;28;20041;-86
2022/05/21 01:16:37;;;;;;;21.00;11.35;;;11.10;99.90;;;;;;5032333;28;20499;-88
2022/05/21 01:19:07;;;;;;;16.48;11.25;;;11.00;99.90;;;;;;5063998;28;20098;-88
2022/05/21 01:21:33;;;;;;;23.27;12.98;;;11.00;99.90;;;;;;5030801;28;20120;-85
2022/05/21 01:24:01;;;;;;;20.27;11.82;;;11.20;99.90;;;;;;5031396;28;20068;-87
2022/05/21 01:26:27;;;;;;;19.13;12.90;;;11.20;99.90;;;;;;5047017;28;20033;-87
2022/05/21 01:28:57;;;;;;;18.83;12.45;;;11.30;99.90;;;;;;5044802;28;20110;-87
2022/05/21 01:31:23;;;;;;;19.70;13.65;;;11.20;99.90;;;;;;5047260;28;20049;-86
2022/05/21 01:33:49;;;;;;;18.73;13.57;;;11.10;99.90;;;;;;5041025;28;20041;-86
2022/05/21 01:36:15;;;;;;;17.65;13.52;;;11.90;99.90;;;;;;5039628;28;20036;-83
2022/05/21 01:38:42;;;;;;;21.85;15.10;;;11.20;99.90;;;;;;5047191;28;20021;-88
2022/05/21 01:41:09;;;;;;;20.77;14.32;;;12.10;99.90;;;;;;5035378;28;20415;-87
2022/05/21 01:46:20;;;;;;;24.15;15.65;;;11.30;99.90;;;;;;5045526;28;20048;-86
2022/05/21 01:48:46;;;;;;;21.83;15.88;;;11.40;99.90;;;;;;5047102;28;20494;-86
2022/05/21 01:51:11;;;;;;;25.70;16.75;;;11.40;99.90;;;;;;5043192;28;20048;-86
2022/05/21 01:53:38;;;;;;;29.58;16.48;;;11.40;99.90;;;;;;5049331;28;20037;-85
2022/05/21 01:56:05;;;;;;;25.85;16.92;;;11.50;99.90;;;;;;5047264;28;20037;-84
2022/05/21 01:58:32;;;;;;;30.02;17.73;;;11.50;99.90;;;;;;5043856;28;20406;-83
2022/05/21 02:00:58;;;;;;;26.23;17.77;;;11.60;99.90;;;;;;5029908;28;20579;-82
2022/05/21 02:03:24;;;;;;;25.92;18.67;;;11.60;99.90;;;;;;5028360;28;20166;-83
2022/05/21 02:05:50;;;;;;;29.45;19.48;;;11.70;99.90;;;;;;5044121;28;20037;-83
2022/05/21 02:08:17;;;;;;;29.60;19.23;;;11.70;99.90;;;;;;5042150;28;20033;-82
2022/05/21 02:10:43;;;;;;;25.02;18.17;;;11.70;99.90;;;;;;5044301;28;20033;-83
2022/05/21 02:13:18;;;;;;;27.15;19.48;;;11.70;99.90;;;;;;5029139;28;20242;-83
2022/05/21 02:15:45;;;;;;;28.25;19.83;;;11.80;99.90;;;;;;5042140;28;20821;-84
2022/05/21 02:18:12;;;;;;;33.85;20.85;;;11.90;99.90;;;;;;5043659;28;20495;-84
2022/05/21 02:20:38;;;;;;;38.58;21.50;;;11.80;99.90;;;;;;5044550;28;20037;-83
2022/05/21 02:23:04;;;;;;;33.45;22.95;;;11.90;99.90;;;;;;5045577;28;21824;-83
2022/05/21 02:25:29;;;;;;;33.72;22.05;;;11.90;99.90;;;;;;5041134;28;20043;-84
2022/05/21 02:27:55;;;;;;;33.85;22.10;;;11.90;99.90;;;;;;5029075;28;20563;-85
2022/05/21 02:30:20;;;;;;;40.60;24.25;;;11.90;99.90;;;;;;5045120;28;20029;-84
2022/05/21 02:32:46;;;;;;;37.65;22.70;;;12.00;99.90;;;;;;5028978;28;20637;-85
2022/05/21 02:35:12;;;;;;;38.75;23.95;;;12.00;99.90;;;;;;5027622;28;20047;-85
2022/05/21 02:40:21;;;;;;;40.83;23.08;;;12.00;99.90;;;;;;5050255;28;20445;-84
2022/05/21 02:42:48;;;;;;;39.72;23.58;;;12.10;99.90;;;;;;5044641;28;20037;-85
2022/05/21 02:45:19;;;;;;;36.17;23.50;;;12.10;99.90;;;;;;5043817;28;20040;-84
2022/05/21 02:47:45;;;;;;;36.47;22.55;;;12.10;99.90;;;;;;5044249;28;20040;-84
2022/05/21 02:50:13;;;;;;;37.13;20.92;;;12.10;99.90;;;;;;5029174;28;20056;-84
2022/05/21 02:52:39;;;;;;;35.53;20.98;;;12.10;99.90;;;;;;5045022;28;20044;-83
2022/05/21 02:55:05;;;;;;;38.42;18.15;;;12.10;99.90;;;;;;5043676;28;20494;-85
2022/05/21 02:57:31;;;;;;;33.75;17.38;;;12.10;99.90;;;;;;5033229;28;20048;-85
2022/05/21 03:00:00;;;;;;;32.55;16.92;;;12.20;99.90;;;;;;5044287;28;20092;-85
2022/05/21 03:02:27;;;;;;;27.60;15.75;;;12.20;99.90;;;;;;5043799;28;20056;-86
2022/05/21 03:04:53;;;;;;;31.65;14.00;;;12.20;99.90;;;;;;5027686;28;20215;-86
2022/05/21 03:07:19;;;;;;;30.25;14.38;;;12.30;99.90;;;;;;5043460;28;20554;-85
2022/05/21 03:12:28;;;;;;;30.77;11.13;;;12.30;99.90;;;;;;5044061;28;20123;-85
2022/05/21 03:14:54;;;;;;;26.35;9.98;;;12.30;99.90;;;;;;5044657;28;20138;-85
2022/05/21 03:17:19;;;;;;;23.67;9.60;;;12.30;99.90;;;;;;5050775;28;20037;-85
2022/05/21 03:19:45;;;;;;;22.30;8.77;;;12.40;99.90;;;;;;5034281;28;20041;-85
2022/05/21 03:22:11;;;;;;;26.92;8.77;;;12.30;99.90;;;;;;5048932;28;20086;-84
2022/05/21 03:24:36;;;;;;;22.98;8.10;;;12.30;99.90;;;;;;5034103;28;20029;-84
2022/05/21 03:27:02;;;;;;;26.67;8.18;;;12.30;99.90;;;;;;5034146;28;20506;-85
2022/05/21 03:29:27;;;;;;;22.80;7.72;;;12.40;99.90;;;;;;5051481;28;20033;-86
2022/05/21 03:31:54;;;;;;;26.33;7.35;;;12.40;99.90;;;;;;5049678;28;20041;-84
2022/05/21 03:34:20;;;;;;;22.23;7.07;;;12.40;99.90;;;;;;5050618;28;20048;-85
2022/05/21 03:36:45;;;;;;;24.15;7.47;;;12.30;99.90;;;;;;5049408;28;20406;-84
2022/05/21 03:39:11;;;;;;;24.45;7.22;;;12.40;99.90;;;;;;5053606;28;20072;-85
2022/05/21 03:41:36;;;;;;;26.08;7.15;;;12.40;99.90;;;;;;5056317;28;20045;-85
2022/05/21 03:44:03;;;;;;;25.90;6.88;;;12.40;99.90;;;;;;5035311;28;20520;-84
2022/05/21 03:46:29;;;;;;;23.58;7.45;;;12.40;99.90;;;;;;5050996;28;20120;-85
2022/05/21 03:48:55;;;;;;;22.45;6.47;;;12.40;99.90;;;;;;5034459;28;20063;-86
2022/05/21 03:51:20;;;;;;;25.15;7.00;;;12.50;99.90;;;;;;5050561;28;20037;-85
2022/05/21 03:53:46;;;;;;;21.70;6.57;;;12.50;99.90;;;;;;5051487;28;20060;-85
2022/05/21 03:56:28;;;;;;;21.55;6.45;;;12.50;99.90;;;;;;5051624;28;20040;-85
2022/05/21 03:59:03;;;;;;;25.75;7.07;;;12.50;99.90;;;;;;5051377;28;20052;-85
2022/05/21 04:01:29;;;;;;;22.70;5.90;;;12.20;99.90;;;;;;5055336;28;20069;-85
2022/05/21 04:03:57;;;;;;;21.95;6.13;;;12.60;99.90;;;;;;5034854;28;20174;-85
2022/05/21 04:06:23;;;;;;;25.75;6.72;;;12.60;99.90;;;;;;5033571;28;20094;-86
2022/05/21 04:08:49;;;;;;;25.83;6.30;;;12.80;99.90;;;;;;5036146;28;20049;-86
2022/05/21 04:11:16;;;;;;;20.48;5.80;;;12.50;99.90;;;;;;5036284;28;20059;-86
2022/05/21 04:13:42;;;;;;;18.70;6.05;;;12.80;99.90;;;;;;5050632;28;20055;-85
2022/05/21 04:16:07;;;;;;;27.60;6.10;;;12.70;99.90;;;;;;5036384;28;20036;-87
2022/05/21 04:18:33;;;;;;;22.88;5.80;;;12.70;99.90;;;;;;5052602;28;20033;-86
2022/05/21 04:20:58;;;;;;;17.05;4.93;;;12.70;99.90;;;;;;5032886;28;20502;-86
2022/05/21 04:23:29;;;;;;;16.05;4.75;;;12.90;99.90;;;;;;5052740;28;20040;-87
2022/05/21 04:25:58;;;;;;;18.05;4.88;;;13.00;99.90;;;;;;5052536;28;20037;-87
2022/05/21 04:28:42;;;;;;;;;;;;;;;;;;;;;
2022/05/21 04:31:08;;;;;;;21.27;5.45;;;12.60;99.90;;;;;;5046680;28;20079;-85
2022/05/21 04:33:34;;;;;;;18.05;4.43;;;12.70;99.90;;;;;;5032589;28;20028;-87
2022/05/21 04:36:17;;;;;;;17.27;5.10;;;12.70;99.90;;;;;;5032034;28;20044;-87
2022/05/21 04:38:43;;;;;;;16.38;4.55;;;12.70;99.90;;;;;;5028735;28;20032;-86
2022/05/21 04:41:10;;;;;;;19.63;4.60;;;12.70;99.90;;;;;;5033635;28;20462;-86
2022/05/21 04:43:45;;;;;;;19.92;4.75;;;12.80;99.90;;;;;;5050040;28;20082;-87
2022/05/21 04:46:11;;;;;;;17.48;3.80;;;12.70;99.90;;;;;;5035002;28;20112;-87
2022/05/21 04:48:40;;;;;;;18.60;4.30;;;12.70;99.90;;;;;;5050722;28;20048;-88
2022/05/21 04:51:06;;;;;;;17.65;4.20;;;13.00;99.90;;;;;;5050566;28;20041;-88
2022/05/21 04:53:32;;;;;;;18.02;5.00;;;12.80;99.90;;;;;;5047666;28;20509;-87
2022/05/21 04:56:01;;;;;;;15.25;3.95;;;13.20;99.90;;;;;;5042904;28;20033;-86
2022/05/21 04:58:27;;;;;;;14.60;4.35;;;12.80;99.90;;;;;;5047673;28;20037;-88
2022/05/21 05:00:54;;;;;;;16.77;4.13;;;13.00;99.90;;;;;;5048630;28;20068;-89
2022/05/21 05:03:19;;;;;;;11.93;3.78;;;12.90;99.90;;;;;;5030875;28;20043;-88
2022/05/21 05:05:46;;;;;;;15.57;4.20;;;12.90;99.90;;;;;;5048472;28;20111;-86
2022/05/21 05:08:17;;;;;;;15.82;3.90;;;13.40;99.90;;;;;;5049737;28;20049;-88
2022/05/21 05:10:44;;;;;;;10.13;3.38;;;12.90;99.90;;;;;;5047711;28;20056;-90
2022/05/21 05:13:11;;;;;;;18.00;4.13;;;13.10;99.90;;;;;;5046147;28;20041;-89
2022/05/21 05:15:37;;;;;;;12.77;3.67;;;12.90;99.90;;;;;;5029416;28;20033;-88
2022/05/21 05:18:05;;;;;;;16.70;4.05;;;13.00;99.90;;;;;;5045624;28;20041;-87
2022/05/21 05:20:32;;;;;;;13.45;3.88;;;13.00;99.90;;;;;;5043916;28;20048;-88
2022/05/21 05:22:58;;;;;;;11.23;3.55;;;13.00;99.90;;;;;;5062248;28;20051;-86
2022/05/21 05:25:24;;;;;;;16.48;4.10;;;13.00;99.90;;;;;;5030033;28;20041;-86
2022/05/21 05:27:50;;;;;;;12.25;3.90;;;13.10;99.90;;;;;;5031613;28;20055;-88
2022/05/21 05:30:17;;;;;;;12.68;3.70;;;13.10;99.90;;;;;;5031149;28;20056;-85
2022/05/21 05:32:44;;;;;;;13.15;3.47;;;13.10;99.90;;;;;;5047254;28;20040;-86
2022/05/21 05:35:10;;;;;;;13.05;3.20;;;13.20;99.90;;;;;;5030206;28;20041;-85
2022/05/21 05:37:37;;;;;;;15.80;3.70;;;13.20;99.90;;;;;;5030200;28;20033;-83
2022/05/21 05:40:04;;;;;;;17.50;3.60;;;13.20;99.90;;;;;;5050397;28;20445;-84
2022/05/21 05:42:29;;;;;;;14.43;3.30;;;13.30;99.90;;;;;;5049612;28;20051;-83
2022/05/21 05:44:55;;;;;;;14.98;3.17;;;13.30;99.90;;;;;;5044615;28;20048;-85
2022/05/21 05:47:21;;;;;;;14.10;3.15;;;13.30;99.90;;;;;;5046590;28;20395;-84
2022/05/21 05:49:46;;;;;;;14.00;3.75;;;13.40;99.90;;;;;;5045535;28;20033;-85
2022/05/21 05:52:12;;;;;;;15.77;3.50;;;13.30;99.90;;;;;;5026274;28;20048;-84
2022/05/21 05:54:38;;;;;;;15.05;3.45;;;13.40;99.90;;;;;;5029198;28;20032;-85
2022/05/21 05:57:08;;;;;;;17.92;3.40;;;13.50;99.90;;;;;;5029915;28;20066;-86
2022/05/21 05:59:51;;;;;;;12.18;3.17;;;13.60;99.90;;;;;;5045992;28;20423;-85
2022/05/21 06:05:14;;;;;;;10.85;3.30;;;13.60;99.90;;;;;;5061414;28;20507;-85
2022/05/21 06:07:49;;;;;;;12.57;3.35;;;13.80;99.90;;;;;;5033538;28;20033;-85
2022/05/21 06:10:18;;;;;;;15.18;3.65;;;13.90;99.90;;;;;;5043870;28;20048;-86
2022/05/21 06:12:43;;;;;;;22.30;3.75;;;14.00;99.90;;;;;;5044643;28;20059;-84
2022/05/21 06:15:11;;;;;;;10.57;2.72;;;13.90;99.90;;;;;;5043742;28;20048;-83
2022/05/21 06:17:37;;;;;;;12.82;3.25;;;14.00;99.90;;;;;;5044927;28;20033;-84
2022/05/21 06:20:05;;;;;;;13.68;3.30;;;13.90;99.90;;;;;;5045125;28;20050;-84
2022/05/21 06:22:32;;;;;;;10.15;3.10;;;14.00;99.90;;;;;;5028246;28;20032;-83
2022/05/21 06:24:58;;;;;;;11.38;3.60;;;14.10;99.90;;;;;;5044268;28;20041;-85
2022/05/21 06:27:24;;;;;;;9.43;2.60;;;14.00;99.90;;;;;;5027197;28;20060;-83
2022/05/21 06:29:49;;;;;;;10.25;3.42;;;14.00;99.90;;;;;;5045518;28;20053;-84
2022/05/21 06:32:15;;;;;;;13.52;3.83;;;14.10;99.90;;;;;;5043954;28;20406;-83
2022/05/21 06:34:40;;;;;;;13.10;3.20;;;14.00;99.90;;;;;;5028007;28;20055;-81
2022/05/21 06:37:08;;;;;;;11.18;3.10;;;14.00;99.90;;;;;;5046399;28;20597;-81
2022/05/21 06:39:35;;;;;;;12.90;3.05;;;14.10;99.90;;;;;;5041927;28;20133;-82
2022/05/21 06:42:02;;;;;;;12.80;2.85;;;14.20;99.90;;;;;;5048978;28;20064;-79
2022/05/21 06:44:27;;;;;;;12.23;3.40;;;14.20;99.90;;;;;;5041758;28;20043;-80
2022/05/21 06:46:54;;;;;;;21.02;3.88;;;14.50;99.90;;;;;;5044852;28;20049;-83
2022/05/21 06:49:20;;;;;;;9.40;2.80;;;14.70;99.90;;;;;;5044044;28;20061;-84
2022/05/21 06:51:46;;;;;;;12.45;3.30;;;14.70;99.90;;;;;;5043465;28;20037;-83
2022/05/21 06:54:11;;;;;;;11.13;3.40;;;14.70;99.90;;;;;;5025549;28;20033;-85
2022/05/21 06:56:39;;;;;;;14.13;3.10;;;14.60;99.90;;;;;;5028832;28;20049;-82
2022/05/21 06:59:05;;;;;;;15.70;3.17;;;14.70;99.90;;;;;;5042990;28;20410;-83
2022/05/21 07:01:31;;;;;;;16.55;3.00;;;14.90;99.90;;;;;;5027860;28;20063;-82
2022/05/21 07:03:57;;;;;;;15.63;3.40;;;14.90;99.90;;;;;;5043193;28;20078;-83
2022/05/21 07:09:07;;;;;;;14.15;3.20;;;14.80;99.90;;;;;;5048863;28;20045;-82
2022/05/21 07:11:32;;;;;;;14.27;3.17;;;14.70;99.90;;;;;;5047885;28;20364;-81
2022/05/21 07:13:58;;;;;;;12.98;2.80;;;14.70;99.90;;;;;;5045151;28;20598;-82
2022/05/21 07:16:24;;;;;;;19.95;3.72;;;14.70;99.90;;;;;;5043111;28;20056;-82
2022/05/21 07:18:50;;;;;;;14.02;2.83;;;15.00;99.90;;;;;;5050654;28;20178;-82
2022/05/21 07:21:18;;;;;;;14.85;3.10;;;15.20;99.90;;;;;;5051264;28;20091;-81
2022/05/21 07:23:44;;;;;;;10.38;2.92;;;15.20;99.90;;;;;;5050211;28;20048;-83
2022/05/21 07:26:11;;;;;;;13.45;3.20;;;15.20;99.90;;;;;;5051534;28;20044;-82
2022/05/21 07:28:37;;;;;;;11.60;2.50;;;15.30;99.90;;;;;;5051434;28;20276;-83
2022/05/21 07:31:03;;;;;;;11.27;2.80;;;15.40;99.90;;;;;;5032389;28;20955;-82
2022/05/21 07:33:28;;;;;;;9.82;2.58;;;15.40;99.90;;;;;;5029272;28;20079;-83
2022/05/21 07:35:54;;;;;;;16.48;3.20;;;15.40;99.90;;;;;;5046760;28;20403;-82
2022/05/21 07:38:19;;;;;;;11.48;2.85;;;15.50;99.90;;;;;;5049261;28;20033;-83
2022/05/21 07:40:47;;;;;;;13.70;3.00;;;15.70;99.90;;;;;;5042152;28;20457;-83
2022/05/21 07:43:18;;;;;;;9.95;2.78;;;15.70;99.90;;;;;;5043872;28;20037;-81
2022/05/21 07:45:45;;;;;;;13.45;2.80;;;15.60;99.90;;;;;;5045598;28;20041;-83
2022/05/21 07:48:13;;;;;;;14.25;2.90;;;15.60;99.90;;;;;;5046831;28;20086;-84
2022/05/21 07:50:47;;;;;;;10.25;3.10;;;15.40;99.90;;;;;;5044460;28;20071;-84
2022/05/21 07:53:15;;;;;;;14.85;3.65;;;15.50;99.90;;;;;;5044098;28;20399;-84
2022/05/21 07:55:46;;;;;;;13.10;2.97;;;15.60;99.90;;;;;;5060868;28;20087;-81
2022/05/21 07:58:12;;;;;;;15.20;3.05;;;15.50;99.90;;;;;;5045749;28;20037;-81
2022/05/21 08:00:38;;;;;;;16.50;2.78;;;15.60;99.90;;;;;;5045150;28;20036;-82
2022/05/21 08:03:04;;;;;;;13.20;3.80;;;15.80;99.90;;;;;;5047018;28;20090;-82
2022/05/21 08:05:30;;;;;;;12.45;2.58;;;15.90;99.90;;;;;;5045402;28;20044;-84
2022/05/21 08:07:56;;;;;;;13.77;3.10;;;16.00;99.90;;;;;;5052520;28;20033;-80
2022/05/21 08:10:22;;;;;;;11.75;2.83;;;16.00;99.90;;;;;;5039252;28;20075;-81
2022/05/21 08:12:50;;;;;;;14.13;2.85;;;16.00;99.90;;;;;;5054634;28;20051;-80
2022/05/21 08:15:16;;;;;;;10.43;2.55;;;15.70;99.90;;;;;;5036748;28;20040;-78
2022/05/21 08:17:42;;;;;;;10.25;2.63;;;15.40;99.90;;;;;;5036768;28;20048;-80
2022/05/21 08:20:11;;;;;;;12.48;2.85;;;15.20;99.90;;;;;;5053954;28;20097;-80
2022/05/21 08:28:05;;;;;;;12.50;2.47;;;15.90;99.90;;;;;;5034161;28;20518;-79
2022/05/21 08:30:30;;;;;;;12.10;2.70;;;16.10;99.90;;;;;;5033991;28;20041;-80
2022/05/21 08:33:05;;;;;;;15.27;2.90;;;16.30;99.90;;;;;;5034406;28;20057;-81
2022/05/21 08:35:31;;;;;;;10.98;2.42;;;16.30;99.90;;;;;;5048798;28;20430;-79
2022/05/21 08:37:56;;;;;;;12.45;3.20;;;16.00;99.90;;;;;;5033177;28;20037;-80
2022/05/21 08:40:30;;;;;;;12.07;2.38;;;15.90;99.90;;;;;;5030837;28;20043;-81
2022/05/21 08:42:58;;;;;;;12.00;2.17;;;16.00;99.90;;;;;;5049575;28;20052;-79
2022/05/21 08:45:31;;;;;;;10.43;2.30;;;16.00;99.90;;;;;;5047962;28;20071;-80
2022/05/21 08:48:06;;;;;;;11.90;2.65;;;16.10;99.90;;;;;;5049867;28;20119;-80
2022/05/21 08:50:34;;;;;;;8.68;2.22;;;16.30;99.90;;;;;;5048362;28;20060;-79
2022/05/21 08:53:11;;;;;;;10.93;2.45;;;16.30;99.90;;;;;;5049356;28;20060;-78
2022/05/21 08:55:39;;;;;;;7.18;2.00;;;16.50;99.90;;;;;;5047730;28;20045;-78
2022/05/21 08:58:28;;;;;;;9.32;2.20;;;16.60;99.90;;;;;;5045462;28;20033;-80
2022/05/21 09:00:55;;;;;;;8.05;2.38;;;16.50;99.90;;;;;;5047917;28;20128;-78
2022/05/21 09:03:23;;;;;;;7.72;2.25;;;16.10;99.90;;;;;;5047725;28;20146;-82
2022/05/21 09:06:24;;;;;;;9.52;2.08;;;15.80;99.90;;;;;;5043856;28;20072;-79
2022/05/21 09:09:01;;;;;;;9.32;2.15;;;15.70;99.90;;;;;;5035369;28;20495;-80
2022/05/21 09:11:49;;;;;;;12.13;2.50;;;15.60;99.90;;;;;;5048418;28;20063;-79
2022/05/21 09:14:26;;;;;;;8.25;1.92;;;16.00;99.90;;;;;;5047833;28;20128;-80
2022/05/21 09:16:54;;;;;;;9.90;1.92;;;16.20;99.90;;;;;;5031871;28;20040;-80
2022/05/21 09:19:33;;;;;;;8.52;2.15;;;16.00;99.90;;;;;;5049093;28;20037;-79
2022/05/21 09:22:05;;;;;;;10.35;2.33;;;15.90;99.90;;;;;;5044692;28;20052;-79
2022/05/21 09:24:44;;;;;;;10.35;2.28;;;16.00;99.90;;;;;;5045946;28;20059;-79
2022/05/21 09:27:31;;;;;;;10.18;1.98;;;16.00;99.90;;;;;;5045486;28;20047;-80
2022/05/21 09:30:22;;;;;;;8.45;1.98;;;16.00;99.90;;;;;;5047466;28;21120;-78
2022/05/21 09:32:52;;;;;;;10.93;2.10;;;15.90;99.90;;;;;;5047260;28;20391;-80
2022/05/21 09:35:27;;;;;;;7.95;1.88;;;16.10;99.90;;;;;;5048275;28;20037;-80
2022/05/21 09:37:53;;;;;;;8.32;1.63;;;16.20;99.90;;;;;;5046645;28;20728;-81
2022/05/21 09:40:34;;;;;;;9.32;2.25;;;16.10;99.90;;;;;;5045813;28;20120;-80
2022/05/21 09:46:20;;;;;;;9.55;2.28;;;16.00;99.90;;;;;;5045200;28;20053;-79
2022/05/21 09:48:46;;;;;;;11.68;2.17;;;15.80;99.90;;;;;;5045867;28;20036;-79
2022/05/21 09:51:30;;;;;;;6.82;1.70;;;16.10;99.90;;;;;;5046126;28;20045;-79
2022/05/21 09:53:57;;;;;;;10.02;2.42;;;16.40;99.90;;;;;;5029721;28;20123;-80
2022/05/21 09:56:34;;;;;;;10.32;2.13;;;16.20;99.90;;;;;;5047112;28;20051;-82
2022/05/21 09:59:14;;;;;;;8.23;1.92;;;16.20;99.90;;;;;;5031830;28;20106;-83
2022/05/21 10:01:57;;;;;;;9.57;2.08;;;16.10;99.90;;;;;;5050016;28;20067;-83
2022/05/21 10:04:43;;;;;;;9.48;2.03;;;16.20;99.90;;;;;;5042491;28;20060;-82
2022/05/21 10:13:17;;;;;;;11.57;1.80;;;16.60;99.90;;;;;;5037444;28;20045;-81
2022/05/21 10:15:48;;;;;;;5.35;1.60;;;16.40;99.90;;;;;;5041166;28;20064;-81
2022/05/21 10:18:34;;;;;;;8.85;2.00;;;16.30;99.90;;;;;;5034977;28;20507;-80
2022/05/21 10:21:17;;;;;;;7.28;2.10;;;16.10;99.90;;;;;;5043692;28;20565;-80
2022/05/21 10:23:50;;;;;;;9.05;1.88;;;16.00;99.90;;;;;;5033791;28;20052;-83
2022/05/21 10:26:39;;;;;;;10.18;2.28;;;16.10;99.90;;;;;;5038859;28;20115;-79
2022/05/21 10:29:20;;;;;;;11.43;2.28;;;16.00;99.90;;;;;;5029854;28;20134;-81
2022/05/21 10:32:12;;;;;;;9.30;2.65;;;16.00;99.90;;;;;;5033795;28;20553;-80
2022/05/21 10:34:47;;;;;;;10.55;2.38;;;15.80;99.90;;;;;;5033553;28;20033;-80
2022/05/21 10:37:53;;;;;;;10.43;2.05;;;15.60;99.90;;;;;;5046250;28;20392;-81
2022/05/21 10:40:22;;;;;;;9.27;2.53;;;15.80;99.90;;;;;;5040702;28;20044;-81
2022/05/21 10:42:54;;;;;;;10.85;1.83;;;16.30;99.90;;;;;;5039824;28;20098;-81
2022/05/21 10:46:01;;;;;;;10.20;2.30;;;16.40;99.90;;;;;;5035362;28;20120;-80
2022/05/21 10:49:04;;;;;;;12.45;2.10;;;16.40;99.90;;;;;;5007541;28;20493;-81
2022/05/21 10:51:34;;;;;;;8.15;1.80;;;16.40;99.90;;;;;;5042861;28;20032;-80
2022/05/21 10:54:18;;;;;;;6.72;1.75;;;16.40;99.90;;;;;;5042570;28;20041;-80
2022/05/21 10:57:01;;;;;;;9.30;2.05;;;16.40;99.90;;;;;;5044706;28;20040;-80
2022/05/21 10:59:58;;;;;;;11.25;2.08;;;16.30;99.90;;;;;;5046521;28;20547;-80
2022/05/21 11:02:55;;;;;;;10.55;2.05;;;16.70;99.90;;;;;;5043799;28;20115;-77
2022/05/21 11:05:53;;;;;;;9.45;2.00;;;17.30;99.90;;;;;;5026534;28;20178;-80
2022/05/21 11:08:40;;;;;;;7.60;1.90;;;17.50;99.90;;;;;;5062759;28;20425;-80
2022/05/21 11:11:13;;;;;;;9.73;2.00;;;17.00;99.90;;;;;;5040203;28;20109;-80
2022/05/21 11:13:44;;;;;;;9.03;2.20;;;16.80;99.90;;;;;;5041783;28;20044;-83
2022/05/21 11:16:23;;;;;;;8.73;2.15;;;16.60;99.90;;;;;;5044407;28;20798;-79
2022/05/21 11:19:01;;;;;;;8.65;1.83;;;16.70;99.90;;;;;;5022848;28;20042;-81
2022/05/21 11:21:26;;;;;;;8.40;2.33;;;16.70;99.90;;;;;;5032401;28;20029;-81
2022/05/21 11:23:58;;;;;;;9.38;1.98;;;16.80;99.90;;;;;;5048416;28;20115;-80
2022/05/21 11:26:58;;;;;;;10.82;2.33;;;17.30;99.90;;;;;;5051161;28;20072;-81
2022/05/21 11:29:47;;;;;;;6.82;2.00;;;17.80;99.90;;;;;;5046010;28;20871;-81
2022/05/21 11:38:35;;;;;;;7.90;2.10;;;16.90;99.90;;;;;;5046829;28;20041;-81
2022/05/21 11:41:25;;;;;;;8.88;2.38;;;16.70;99.90;;;;;;5046217;28;20049;-80
2022/05/21 11:43:58;;;;;;;8.68;2.28;;;16.60;99.90;;;;;;5047161;28;20124;-81
2022/05/21 11:46:36;;;;;;;6.55;1.90;;;16.60;99.90;;;;;;5046764;28;20043;-80
2022/05/21 11:49:40;;;;;;;10.43;1.95;;;16.60;99.90;;;;;;5048604;28;20502;-80
2022/05/21 11:52:28;;;;;;;8.40;1.80;;;16.70;99.90;;;;;;5045483;28;20526;-78
2022/05/21 11:54:53;;;;;;;9.50;1.92;;;17.00;99.90;;;;;;5047342;28;20041;-80
2022/05/21 11:57:40;;;;;;;8.30;2.13;;;17.20;99.90;;;;;;5047378;28;20037;-80
2022/05/21 12:00:13;;;;;;;12.90;2.00;;;17.00;99.90;;;;;;5049076;28;20473;-81
2022/05/21 12:03:02;;;;;;;11.23;2.00;;;17.00;99.90;;;;;;5047842;28;20041;-79
2022/05/21 12:05:34;;;;;;;6.72;1.88;;;17.20;99.90;;;;;;5044815;28;20037;-81
2022/05/21 12:08:29;;;;;;;9.77;2.45;;;17.10;99.90;;;;;;5032190;28;20044;-79
2022/05/21 12:11:09;;;;;;;8.77;2.10;;;16.90;99.90;;;;;;5044292;28;20052;-81
2022/05/21 12:13:34;;;;;;;7.22;2.03;;;16.80;99.90;;;;;;5045152;28;20450;-80
2022/05/21 12:16:21;;;;;;;7.88;2.10;;;16.80;99.90;;;;;;5049143;28;20048;-81
2022/05/21 12:18:49;;;;;;;10.32;1.90;;;16.80;99.90;;;;;;5045172;28;20410;-80
2022/05/21 12:21:34;;;;;;;12.15;2.20;;;16.80;99.90;;;;;;5030503;28;20071;-80
2022/05/21 12:24:05;;;;;;;10.88;2.20;;;16.80;99.90;;;;;;5046401;28;20055;-80
2022/05/21 12:26:43;;;;;;;10.43;2.20;;;16.80;99.90;;;;;;5049563;28;20037;-80
2022/05/21 12:29:12;;;;;;;12.80;2.20;;;16.70;99.90;;;;;;5053734;28;20076;-80
2022/05/21 12:31:50;;;;;;;9.27;2.13;;;16.80;99.90;;;;;;5037155;28;20041;-81
2022/05/21 12:34:34;;;;;;;7.90;2.00;;;16.80;99.90;;;;;;5029506;28;20037;-80
2022/05/21 12:37:10;;;;;;;13.13;2.42;;;16.60;99.90;;;;;;5048174;28;20537;-80
2022/05/21 12:40:01;;;;;;;9.60;2.30;;;16.60;99.90;;;;;;5051728;28;20041;-81
2022/05/21 12:42:40;;;;;;;13.55;1.80;;;16.50;99.90;;;;;;5046021;28;20041;-81
2022/05/21 12:45:07;;;;;;;10.80;2.65;;;16.80;99.90;;;;;;5052237;28;20052;-80
2022/05/21 12:47:37;;;;;;;7.32;1.92;;;17.20;99.90;;;;;;5054424;28;20041;-81
2022/05/21 12:50:21;;;;;;;7.50;1.60;;;17.70;99.90;;;;;;5045942;28;20040;-81
2022/05/21 12:52:49;;;;;;;5.38;1.48;;;17.70;99.90;;;;;;5046306;28;20047;-80
2022/05/21 12:55:32;;;;;;;7.28;1.75;;;17.60;99.90;;;;;;5046645;28;20356;-80
2022/05/21 12:58:10;;;;;;;10.45;2.13;;;17.30;99.90;;;;;;5047621;28;20036;-81
2022/05/21 13:00:45;;;;;;;8.30;1.70;;;17.30;99.90;;;;;;5046535;28;20162;-79
2022/05/21 13:03:11;;;;;;;7.47;1.70;;;17.20;99.90;;;;;;5045954;28;20041;-79
2022/05/21 13:05:47;;;;;;;6.80;1.70;;;17.10;99.90;;;;;;5045078;28;20189;-81
2022/05/21 13:08:13;;;;;;;5.60;1.70;;;17.20;99.90;;;;;;5045117;28;20094;-80
2022/05/21 13:10:41;;;;;;;5.38;1.20;;;17.20;99.90;;;;;;5043502;28;20040;-81
2022/05/21 13:13:11;;;;;;;5.18;1.95;;;17.20;99.90;;;;;;5045342;28;20048;-79
2022/05/21 13:15:42;;;;;;;9.18;1.92;;;17.20;99.90;;;;;;5044541;28;20617;-76
2022/05/21 13:18:42;;;;;;;4.95;1.30;;;17.20;99.90;;;;;;5044944;28;20064;-79
2022/05/21 13:21:17;;;;;;;9.23;1.63;;;17.10;99.90;;;;;;5042427;28;21957;-80
2022/05/21 13:24:02;;;;;;;8.32;1.98;;;17.40;99.90;;;;;;5049407;28;20041;-80
2022/05/21 13:26:31;;;;;;;5.35;1.65;;;17.50;99.90;;;;;;5026638;28;20499;-80
2022/05/21 13:29:17;;;;;;;8.52;1.92;;;17.80;99.90;;;;;;5032822;28;20084;-81
2022/05/21 13:31:43;;;;;;;7.43;1.65;;;17.90;99.90;;;;;;5009617;28;20057;-82
2022/05/21 13:34:17;;;;;;;5.88;1.88;;;17.60;99.90;;;;;;5032006;28;20087;-80
2022/05/21 13:36:49;;;;;;;9.38;1.90;;;18.10;99.90;;;;;;5032856;28;20077;-80
2022/05/21 13:39:24;;;;;;;8.05;1.80;;;18.50;99.90;;;;;;5033231;28;20033;-81
2022/05/21 13:41:51;;;;;;;7.78;2.00;;;18.30;99.90;;;;;;5017041;28;20041;-82